• images/banner/banner1.jpg
  • images/banner/banner2.jpg

Team Member Login

Aviation Weather

[source: ADDS]
METAR
EGVN 171850Z 26003KT CAVOK 01/M03 Q1018 BLU NOSIG =
TAF EGVN 171632Z 1718/1818 29005KT 9999 FEW030 PROB40 TEMPO 1811/1813 BKN024 BECMG 1813/1815 BKN018 PROB40 TEMPO 1815/1818 4000 -RASN BKN010
TAF
TAF EGVN 171632Z 1718/1818 29005KT 9999 FEW030 PROB40 TEMPO 1811/1813 BKN024 BECMG 1813/1815 BKN018 PROB40 TEMPO 1815/1818 4000 -RASN BKN010 =